sensor_id;sensor_type;location;lat;lon;timestamp;P1;durP1;ratioP1;P2;durP2;ratioP2
29662;SDS011;16578;53.266;7.920;2024-01-10T00:01:17;32.60;;;16.90;;
29662;SDS011;16578;53.266;7.920;2024-01-10T00:03:43;31.73;;;15.95;;
29662;SDS011;16578;53.266;7.920;2024-01-10T00:06:12;27.38;;;15.65;;
29662;SDS011;16578;53.266;7.920;2024-01-10T00:08:38;28.90;;;15.63;;
29662;SDS011;16578;53.266;7.920;2024-01-10T00:11:03;30.85;;;17.70;;
29662;SDS011;16578;53.266;7.920;2024-01-10T00:13:31;30.00;;;16.45;;
29662;SDS011;16578;53.266;7.920;2024-01-10T00:15:57;28.00;;;16.10;;
29662;SDS011;16578;53.266;7.920;2024-01-10T00:18:24;30.30;;;17.30;;
29662;SDS011;16578;53.266;7.920;2024-01-10T00:20:50;29.50;;;16.80;;
29662;SDS011;16578;53.266;7.920;2024-01-10T00:23:19;28.55;;;16.35;;
29662;SDS011;16578;53.266;7.920;2024-01-10T00:25:45;29.48;;;15.40;;
29662;SDS011;16578;53.266;7.920;2024-01-10T00:28:11;28.92;;;15.13;;
29662;SDS011;16578;53.266;7.920;2024-01-10T00:30:37;30.33;;;16.33;;
29662;SDS011;16578;53.266;7.920;2024-01-10T00:33:03;30.92;;;16.45;;
29662;SDS011;16578;53.266;7.920;2024-01-10T00:35:29;30.02;;;16.60;;
29662;SDS011;16578;53.266;7.920;2024-01-10T00:37:55;30.88;;;16.38;;
29662;SDS011;16578;53.266;7.920;2024-01-10T00:40:20;28.30;;;17.33;;
29662;SDS011;16578;53.266;7.920;2024-01-10T00:42:47;30.90;;;16.33;;
29662;SDS011;16578;53.266;7.920;2024-01-10T00:45:12;30.92;;;17.60;;
29662;SDS011;16578;53.266;7.920;2024-01-10T00:47:38;31.45;;;17.65;;
29662;SDS011;16578;53.266;7.920;2024-01-10T00:50:04;31.38;;;16.40;;
29662;SDS011;16578;53.266;7.920;2024-01-10T00:52:30;32.00;;;18.15;;
29662;SDS011;16578;53.266;7.920;2024-01-10T00:54:56;27.73;;;15.80;;
29662;SDS011;16578;53.266;7.920;2024-01-10T00:57:21;28.58;;;16.30;;
29662;SDS011;16578;53.266;7.920;2024-01-10T00:59:47;28.17;;;16.77;;
29662;SDS011;16578;53.266;7.920;2024-01-10T01:02:12;28.05;;;16.13;;
29662;SDS011;16578;53.266;7.920;2024-01-10T01:04:38;31.45;;;16.50;;
29662;SDS011;16578;53.266;7.920;2024-01-10T01:07:04;28.98;;;17.15;;
29662;SDS011;16578;53.266;7.920;2024-01-10T01:09:29;29.15;;;16.08;;
29662;SDS011;16578;53.266;7.920;2024-01-10T01:11:55;30.33;;;16.70;;
29662;SDS011;16578;53.266;7.920;2024-01-10T01:14:20;30.85;;;16.60;;
29662;SDS011;16578;53.266;7.920;2024-01-10T01:16:46;31.10;;;15.05;;
29662;SDS011;16578;53.266;7.920;2024-01-10T01:19:12;28.73;;;16.02;;
29662;SDS011;16578;53.266;7.920;2024-01-10T01:21:37;31.88;;;16.63;;
29662;SDS011;16578;53.266;7.920;2024-01-10T01:24:03;31.90;;;16.48;;
29662;SDS011;16578;53.266;7.920;2024-01-10T01:26:28;27.98;;;15.20;;
29662;SDS011;16578;53.266;7.920;2024-01-10T01:28:54;27.88;;;17.13;;
29662;SDS011;16578;53.266;7.920;2024-01-10T01:31:20;31.63;;;18.05;;
29662;SDS011;16578;53.266;7.920;2024-01-10T01:33:45;31.80;;;17.98;;
29662;SDS011;16578;53.266;7.920;2024-01-10T01:36:11;30.35;;;17.88;;
29662;SDS011;16578;53.266;7.920;2024-01-10T01:38:37;30.02;;;17.92;;
29662;SDS011;16578;53.266;7.920;2024-01-10T01:41:02;29.50;;;16.75;;
29662;SDS011;16578;53.266;7.920;2024-01-10T01:43:28;31.15;;;17.20;;
29662;SDS011;16578;53.266;7.920;2024-01-10T01:45:54;27.58;;;15.65;;
29662;SDS011;16578;53.266;7.920;2024-01-10T01:48:21;28.83;;;15.18;;
29662;SDS011;16578;53.266;7.920;2024-01-10T01:50:49;31.02;;;16.00;;
29662;SDS011;16578;53.266;7.920;2024-01-10T01:53:17;27.33;;;16.10;;
29662;SDS011;16578;53.266;7.920;2024-01-10T01:55:44;33.97;;;16.77;;
29662;SDS011;16578;53.266;7.920;2024-01-10T01:58:10;28.38;;;16.17;;
29662;SDS011;16578;53.266;7.920;2024-01-10T02:00:37;29.45;;;17.23;;
29662;SDS011;16578;53.266;7.920;2024-01-10T02:03:08;30.95;;;18.20;;
29662;SDS011;16578;53.266;7.920;2024-01-10T02:05:35;35.63;;;17.02;;
29662;SDS011;16578;53.266;7.920;2024-01-10T02:08:02;33.45;;;18.20;;
29662;SDS011;16578;53.266;7.920;2024-01-10T02:10:27;30.08;;;18.10;;
29662;SDS011;16578;53.266;7.920;2024-01-10T02:12:53;33.65;;;18.40;;
29662;SDS011;16578;53.266;7.920;2024-01-10T02:15:19;27.23;;;16.50;;
29662;SDS011;16578;53.266;7.920;2024-01-10T02:17:45;31.35;;;16.95;;
29662;SDS011;16578;53.266;7.920;2024-01-10T02:20:11;27.48;;;16.25;;
29662;SDS011;16578;53.266;7.920;2024-01-10T02:22:38;30.27;;;16.42;;
29662;SDS011;16578;53.266;7.920;2024-01-10T02:25:05;30.85;;;17.50;;
29662;SDS011;16578;53.266;7.920;2024-01-10T02:27:35;28.98;;;16.52;;
29662;SDS011;16578;53.266;7.920;2024-01-10T02:30:02;31.65;;;17.52;;
29662;SDS011;16578;53.266;7.920;2024-01-10T02:32:28;28.85;;;17.05;;
29662;SDS011;16578;53.266;7.920;2024-01-10T02:34:54;28.23;;;15.63;;
29662;SDS011;16578;53.266;7.920;2024-01-10T02:37:20;30.02;;;16.27;;
29662;SDS011;16578;53.266;7.920;2024-01-10T02:39:45;27.83;;;16.55;;
29662;SDS011;16578;53.266;7.920;2024-01-10T02:42:11;31.00;;;15.70;;
29662;SDS011;16578;53.266;7.920;2024-01-10T02:44:36;30.92;;;16.95;;
29662;SDS011;16578;53.266;7.920;2024-01-10T02:47:02;26.38;;;16.33;;
29662;SDS011;16578;53.266;7.920;2024-01-10T02:49:28;28.25;;;15.82;;
29662;SDS011;16578;53.266;7.920;2024-01-10T02:51:53;30.88;;;16.35;;
29662;SDS011;16578;53.266;7.920;2024-01-10T02:54:19;27.40;;;15.35;;
29662;SDS011;16578;53.266;7.920;2024-01-10T02:56:45;29.77;;;18.27;;
29662;SDS011;16578;53.266;7.920;2024-01-10T02:59:10;30.52;;;18.27;;
29662;SDS011;16578;53.266;7.920;2024-01-10T03:01:36;30.90;;;16.70;;
29662;SDS011;16578;53.266;7.920;2024-01-10T03:04:01;33.63;;;19.77;;
29662;SDS011;16578;53.266;7.920;2024-01-10T03:06:27;33.63;;;19.52;;
29662;SDS011;16578;53.266;7.920;2024-01-10T03:08:54;34.22;;;18.98;;
29662;SDS011;16578;53.266;7.920;2024-01-10T03:11:20;29.83;;;17.90;;
29662;SDS011;16578;53.266;7.920;2024-01-10T03:13:46;33.03;;;17.80;;
29662;SDS011;16578;53.266;7.920;2024-01-10T03:16:12;36.22;;;18.73;;
29662;SDS011;16578;53.266;7.920;2024-01-10T03:18:38;33.00;;;17.23;;
29662;SDS011;16578;53.266;7.920;2024-01-10T03:21:04;29.75;;;17.33;;
29662;SDS011;16578;53.266;7.920;2024-01-10T03:23:30;32.72;;;17.30;;
29662;SDS011;16578;53.266;7.920;2024-01-10T03:25:56;32.88;;;17.95;;
29662;SDS011;16578;53.266;7.920;2024-01-10T03:28:22;35.67;;;18.23;;
29662;SDS011;16578;53.266;7.920;2024-01-10T03:30:48;33.17;;;17.65;;
29662;SDS011;16578;53.266;7.920;2024-01-10T03:33:14;32.40;;;17.98;;
29662;SDS011;16578;53.266;7.920;2024-01-10T03:35:40;40.08;;;18.13;;
29662;SDS011;16578;53.266;7.920;2024-01-10T03:38:06;32.47;;;18.13;;
29662;SDS011;16578;53.266;7.920;2024-01-10T03:40:32;33.65;;;16.95;;
29662;SDS011;16578;53.266;7.920;2024-01-10T03:42:58;34.67;;;18.25;;
29662;SDS011;16578;53.266;7.920;2024-01-10T03:45:23;34.95;;;17.60;;
29662;SDS011;16578;53.266;7.920;2024-01-10T03:47:49;35.28;;;17.92;;
29662;SDS011;16578;53.266;7.920;2024-01-10T03:50:19;32.95;;;16.75;;
29662;SDS011;16578;53.266;7.920;2024-01-10T03:52:45;38.50;;;18.05;;
29662;SDS011;16578;53.266;7.920;2024-01-10T03:55:12;33.90;;;16.88;;
29662;SDS011;16578;53.266;7.920;2024-01-10T03:57:38;34.33;;;17.83;;
29662;SDS011;16578;53.266;7.920;2024-01-10T04:00:04;33.28;;;17.17;;
29662;SDS011;16578;53.266;7.920;2024-01-10T04:02:31;34.88;;;18.35;;
29662;SDS011;16578;53.266;7.920;2024-01-10T04:04:57;34.90;;;17.02;;
29662;SDS011;16578;53.266;7.920;2024-01-10T04:07:23;35.40;;;17.27;;
29662;SDS011;16578;53.266;7.920;2024-01-10T04:09:49;39.72;;;17.73;;
29662;SDS011;16578;53.266;7.920;2024-01-10T04:12:14;35.17;;;16.33;;
29662;SDS011;16578;53.266;7.920;2024-01-10T04:14:40;35.65;;;17.17;;
29662;SDS011;16578;53.266;7.920;2024-01-10T04:17:05;35.72;;;16.85;;
29662;SDS011;16578;53.266;7.920;2024-01-10T04:19:32;35.05;;;16.90;;
29662;SDS011;16578;53.266;7.920;2024-01-10T04:21:58;31.40;;;15.93;;
29662;SDS011;16578;53.266;7.920;2024-01-10T04:24:24;34.30;;;17.05;;
29662;SDS011;16578;53.266;7.920;2024-01-10T04:26:49;34.67;;;17.70;;
29662;SDS011;16578;53.266;7.920;2024-01-10T04:29:15;30.02;;;16.27;;
29662;SDS011;16578;53.266;7.920;2024-01-10T04:31:41;37.05;;;18.13;;
29662;SDS011;16578;53.266;7.920;2024-01-10T04:34:06;35.92;;;17.95;;
29662;SDS011;16578;53.266;7.920;2024-01-10T04:36:32;34.28;;;16.80;;
29662;SDS011;16578;53.266;7.920;2024-01-10T04:38:58;35.65;;;16.40;;
29662;SDS011;16578;53.266;7.920;2024-01-10T04:41:23;39.47;;;17.25;;
29662;SDS011;16578;53.266;7.920;2024-01-10T04:43:49;34.45;;;17.23;;
29662;SDS011;16578;53.266;7.920;2024-01-10T04:46:15;34.13;;;17.45;;
29662;SDS011;16578;53.266;7.920;2024-01-10T04:48:40;33.15;;;16.40;;
29662;SDS011;16578;53.266;7.920;2024-01-10T04:51:06;41.45;;;18.27;;
29662;SDS011;16578;53.266;7.920;2024-01-10T04:53:32;35.00;;;16.80;;
29662;SDS011;16578;53.266;7.920;2024-01-10T04:55:58;41.00;;;18.55;;
29662;SDS011;16578;53.266;7.920;2024-01-10T04:58:24;33.05;;;16.02;;
29662;SDS011;16578;53.266;7.920;2024-01-10T05:00:49;33.67;;;16.20;;
29662;SDS011;16578;53.266;7.920;2024-01-10T05:03:15;32.90;;;15.23;;
29662;SDS011;16578;53.266;7.920;2024-01-10T05:05:40;33.10;;;16.83;;
29662;SDS011;16578;53.266;7.920;2024-01-10T05:08:06;31.38;;;14.75;;
29662;SDS011;16578;53.266;7.920;2024-01-10T05:10:32;33.88;;;15.77;;
29662;SDS011;16578;53.266;7.920;2024-01-10T05:12:57;38.20;;;16.45;;
29662;SDS011;16578;53.266;7.920;2024-01-10T05:15:23;36.95;;;16.38;;
29662;SDS011;16578;53.266;7.920;2024-01-10T05:17:48;34.50;;;16.50;;
29662;SDS011;16578;53.266;7.920;2024-01-10T05:20:14;36.08;;;16.00;;
29662;SDS011;16578;53.266;7.920;2024-01-10T05:22:40;35.55;;;14.65;;
29662;SDS011;16578;53.266;7.920;2024-01-10T05:25:05;33.58;;;15.60;;
29662;SDS011;16578;53.266;7.920;2024-01-10T05:27:31;35.83;;;15.90;;
29662;SDS011;16578;53.266;7.920;2024-01-10T05:29:57;35.03;;;17.02;;
29662;SDS011;16578;53.266;7.920;2024-01-10T05:32:24;40.38;;;17.17;;
29662;SDS011;16578;53.266;7.920;2024-01-10T05:34:50;38.65;;;17.98;;
29662;SDS011;16578;53.266;7.920;2024-01-10T05:37:16;39.17;;;17.75;;
29662;SDS011;16578;53.266;7.920;2024-01-10T05:39:41;34.72;;;16.13;;
29662;SDS011;16578;53.266;7.920;2024-01-10T05:42:07;37.22;;;18.15;;
29662;SDS011;16578;53.266;7.920;2024-01-10T05:44:32;39.35;;;17.05;;
29662;SDS011;16578;53.266;7.920;2024-01-10T05:46:58;37.85;;;16.98;;
29662;SDS011;16578;53.266;7.920;2024-01-10T05:49:24;35.38;;;16.80;;
29662;SDS011;16578;53.266;7.920;2024-01-10T05:51:50;36.45;;;17.00;;
29662;SDS011;16578;53.266;7.920;2024-01-10T05:54:16;37.15;;;16.48;;
29662;SDS011;16578;53.266;7.920;2024-01-10T05:56:43;37.58;;;16.25;;
29662;SDS011;16578;53.266;7.920;2024-01-10T05:59:09;36.47;;;15.27;;
29662;SDS011;16578;53.266;7.920;2024-01-10T06:01:36;41.40;;;17.15;;
29662;SDS011;16578;53.266;7.920;2024-01-10T06:04:03;36.10;;;16.20;;
29662;SDS011;16578;53.266;7.920;2024-01-10T06:06:29;36.58;;;15.57;;
29662;SDS011;16578;53.266;7.920;2024-01-10T06:08:55;39.67;;;17.73;;
29662;SDS011;16578;53.266;7.920;2024-01-10T06:11:21;37.78;;;16.33;;
29662;SDS011;16578;53.266;7.920;2024-01-10T06:13:46;38.13;;;15.93;;
29662;SDS011;16578;53.266;7.920;2024-01-10T06:16:13;42.63;;;16.67;;
29662;SDS011;16578;53.266;7.920;2024-01-10T06:18:39;39.92;;;16.92;;
29662;SDS011;16578;53.266;7.920;2024-01-10T06:21:04;39.35;;;16.30;;
29662;SDS011;16578;53.266;7.920;2024-01-10T06:23:30;44.92;;;18.42;;
29662;SDS011;16578;53.266;7.920;2024-01-10T06:25:56;37.42;;;15.88;;
29662;SDS011;16578;53.266;7.920;2024-01-10T06:28:21;52.88;;;18.52;;
29662;SDS011;16578;53.266;7.920;2024-01-10T06:30:48;43.67;;;17.17;;
29662;SDS011;16578;53.266;7.920;2024-01-10T06:33:14;43.97;;;16.50;;
29662;SDS011;16578;53.266;7.920;2024-01-10T06:35:40;41.95;;;15.98;;
29662;SDS011;16578;53.266;7.920;2024-01-10T06:38:08;37.40;;;15.98;;
29662;SDS011;16578;53.266;7.920;2024-01-10T06:40:34;37.85;;;15.77;;
29662;SDS011;16578;53.266;7.920;2024-01-10T06:43:01;37.80;;;15.35;;
29662;SDS011;16578;53.266;7.920;2024-01-10T06:45:27;30.88;;;13.50;;
29662;SDS011;16578;53.266;7.920;2024-01-10T06:47:53;43.55;;;17.27;;
29662;SDS011;16578;53.266;7.920;2024-01-10T06:50:19;39.55;;;16.30;;
29662;SDS011;16578;53.266;7.920;2024-01-10T06:52:45;40.47;;;17.17;;
29662;SDS011;16578;53.266;7.920;2024-01-10T06:55:11;34.45;;;14.55;;
29662;SDS011;16578;53.266;7.920;2024-01-10T06:57:36;36.92;;;16.00;;
29662;SDS011;16578;53.266;7.920;2024-01-10T07:00:02;39.05;;;15.88;;
29662;SDS011;16578;53.266;7.920;2024-01-10T07:02:31;38.17;;;15.93;;
29662;SDS011;16578;53.266;7.920;2024-01-10T07:04:59;46.70;;;17.23;;
29662;SDS011;16578;53.266;7.920;2024-01-10T07:07:25;38.58;;;15.85;;
29662;SDS011;16578;53.266;7.920;2024-01-10T07:09:50;46.20;;;17.65;;
29662;SDS011;16578;53.266;7.920;2024-01-10T07:12:16;40.13;;;15.10;;
29662;SDS011;16578;53.266;7.920;2024-01-10T07:14:41;41.25;;;15.90;;
29662;SDS011;16578;53.266;7.920;2024-01-10T07:17:07;38.72;;;16.75;;
29662;SDS011;16578;53.266;7.920;2024-01-10T07:19:33;39.65;;;16.52;;
29662;SDS011;16578;53.266;7.920;2024-01-10T07:21:58;38.25;;;16.90;;
29662;SDS011;16578;53.266;7.920;2024-01-10T07:24:24;37.72;;;16.63;;
29662;SDS011;16578;53.266;7.920;2024-01-10T07:26:49;41.00;;;16.30;;
29662;SDS011;16578;53.266;7.920;2024-01-10T07:29:16;44.13;;;17.42;;
29662;SDS011;16578;53.266;7.920;2024-01-10T07:31:41;41.75;;;17.13;;
29662;SDS011;16578;53.266;7.920;2024-01-10T07:34:07;44.72;;;16.85;;
29662;SDS011;16578;53.266;7.920;2024-01-10T07:36:33;36.30;;;15.13;;
29662;SDS011;16578;53.266;7.920;2024-01-10T07:38:59;35.88;;;15.43;;
29662;SDS011;16578;53.266;7.920;2024-01-10T07:41:25;35.92;;;15.88;;
29662;SDS011;16578;53.266;7.920;2024-01-10T07:43:50;36.33;;;15.77;;
29662;SDS011;16578;53.266;7.920;2024-01-10T07:46:16;35.85;;;15.60;;
29662;SDS011;16578;53.266;7.920;2024-01-10T07:48:42;36.28;;;15.32;;
29662;SDS011;16578;53.266;7.920;2024-01-10T07:51:08;42.17;;;15.95;;
29662;SDS011;16578;53.266;7.920;2024-01-10T07:53:34;33.90;;;15.38;;
29662;SDS011;16578;53.266;7.920;2024-01-10T07:56:01;35.63;;;15.13;;
29662;SDS011;16578;53.266;7.920;2024-01-10T07:58:26;36.80;;;14.60;;
29662;SDS011;16578;53.266;7.920;2024-01-10T08:00:52;36.63;;;15.95;;
29662;SDS011;16578;53.266;7.920;2024-01-10T08:03:19;38.53;;;15.65;;
29662;SDS011;16578;53.266;7.920;2024-01-10T08:05:44;40.92;;;16.38;;
29662;SDS011;16578;53.266;7.920;2024-01-10T08:08:11;34.55;;;15.50;;
29662;SDS011;16578;53.266;7.920;2024-01-10T08:10:38;36.10;;;15.55;;
29662;SDS011;16578;53.266;7.920;2024-01-10T08:13:05;38.03;;;16.00;;
29662;SDS011;16578;53.266;7.920;2024-01-10T08:15:30;35.55;;;15.13;;
29662;SDS011;16578;53.266;7.920;2024-01-10T08:17:59;36.60;;;15.38;;
29662;SDS011;16578;53.266;7.920;2024-01-10T08:20:28;36.75;;;15.73;;
29662;SDS011;16578;53.266;7.920;2024-01-10T08:22:53;36.13;;;16.02;;
29662;SDS011;16578;53.266;7.920;2024-01-10T08:25:19;36.50;;;15.00;;
29662;SDS011;16578;53.266;7.920;2024-01-10T08:27:44;36.25;;;15.40;;
29662;SDS011;16578;53.266;7.920;2024-01-10T08:30:10;35.10;;;15.60;;
29662;SDS011;16578;53.266;7.920;2024-01-10T08:32:36;33.80;;;15.50;;
29662;SDS011;16578;53.266;7.920;2024-01-10T08:35:05;40.88;;;17.05;;
29662;SDS011;16578;53.266;7.920;2024-01-10T08:37:33;34.17;;;14.98;;
29662;SDS011;16578;53.266;7.920;2024-01-10T08:39:59;35.35;;;15.38;;
29662;SDS011;16578;53.266;7.920;2024-01-10T08:42:28;36.80;;;14.93;;
29662;SDS011;16578;53.266;7.920;2024-01-10T08:44:53;29.10;;;13.75;;
29662;SDS011;16578;53.266;7.920;2024-01-10T08:47:21;32.50;;;14.43;;
29662;SDS011;16578;53.266;7.920;2024-01-10T08:49:46;37.08;;;16.25;;
29662;SDS011;16578;53.266;7.920;2024-01-10T08:52:12;37.13;;;14.75;;
29662;SDS011;16578;53.266;7.920;2024-01-10T08:54:38;32.47;;;16.52;;
29662;SDS011;16578;53.266;7.920;2024-01-10T08:57:04;39.33;;;15.43;;
29662;SDS011;16578;53.266;7.920;2024-01-10T08:59:29;34.67;;;16.63;;
29662;SDS011;16578;53.266;7.920;2024-01-10T09:01:55;40.25;;;19.02;;
29662;SDS011;16578;53.266;7.920;2024-01-10T09:04:21;40.03;;;16.98;;
29662;SDS011;16578;53.266;7.920;2024-01-10T09:06:46;45.00;;;19.85;;
29662;SDS011;16578;53.266;7.920;2024-01-10T09:09:13;35.30;;;16.42;;
29662;SDS011;16578;53.266;7.920;2024-01-10T09:11:39;34.28;;;16.38;;
29662;SDS011;16578;53.266;7.920;2024-01-10T09:14:04;34.55;;;16.08;;
29662;SDS011;16578;53.266;7.920;2024-01-10T09:16:30;37.70;;;16.05;;
29662;SDS011;16578;53.266;7.920;2024-01-10T09:18:55;39.85;;;17.67;;
29662;SDS011;16578;53.266;7.920;2024-01-10T09:21:22;32.33;;;16.90;;
29662;SDS011;16578;53.266;7.920;2024-01-10T09:23:49;34.45;;;15.65;;
29662;SDS011;16578;53.266;7.920;2024-01-10T09:26:16;37.75;;;16.33;;
29662;SDS011;16578;53.266;7.920;2024-01-10T09:28:43;31.27;;;15.35;;
29662;SDS011;16578;53.266;7.920;2024-01-10T09:31:08;38.42;;;16.10;;
29662;SDS011;16578;53.266;7.920;2024-01-10T09:33:34;39.90;;;15.95;;
29662;SDS011;16578;53.266;7.920;2024-01-10T09:36:00;32.53;;;14.77;;
29662;SDS011;16578;53.266;7.920;2024-01-10T09:38:25;38.95;;;16.13;;
29662;SDS011;16578;53.266;7.920;2024-01-10T09:40:52;32.13;;;16.00;;
29662;SDS011;16578;53.266;7.920;2024-01-10T09:43:26;39.78;;;17.25;;
29662;SDS011;16578;53.266;7.920;2024-01-10T09:45:52;33.95;;;16.15;;
29662;SDS011;16578;53.266;7.920;2024-01-10T09:48:19;39.47;;;17.52;;
29662;SDS011;16578;53.266;7.920;2024-01-10T09:50:45;36.60;;;17.08;;
29662;SDS011;16578;53.266;7.920;2024-01-10T09:53:16;33.90;;;16.15;;
29662;SDS011;16578;53.266;7.920;2024-01-10T09:55:52;35.53;;;18.50;;
29662;SDS011;16578;53.266;7.920;2024-01-10T09:58:22;34.20;;;17.33;;
29662;SDS011;16578;53.266;7.920;2024-01-10T10:03:17;34.22;;;16.23;;
29662;SDS011;16578;53.266;7.920;2024-01-10T10:05:43;34.90;;;16.30;;
29662;SDS011;16578;53.266;7.920;2024-01-10T10:08:13;32.67;;;15.43;;
29662;SDS011;16578;53.266;7.920;2024-01-10T10:10:50;34.38;;;15.18;;
29662;SDS011;16578;53.266;7.920;2024-01-10T10:13:26;31.33;;;15.60;;
29662;SDS011;16578;53.266;7.920;2024-01-10T10:15:59;36.17;;;16.08;;
29662;SDS011;16578;53.266;7.920;2024-01-10T10:18:29;31.90;;;13.98;;
29662;SDS011;16578;53.266;7.920;2024-01-10T10:21:08;34.13;;;15.45;;
29662;SDS011;16578;53.266;7.920;2024-01-10T10:23:35;32.28;;;17.10;;
29662;SDS011;16578;53.266;7.920;2024-01-10T10:26:11;32.75;;;16.67;;
29662;SDS011;16578;53.266;7.920;2024-01-10T10:28:47;33.50;;;16.95;;
29662;SDS011;16578;53.266;7.920;2024-01-10T10:31:13;35.42;;;16.45;;
29662;SDS011;16578;53.266;7.920;2024-01-10T10:33:40;31.63;;;17.70;;
29662;SDS011;16578;53.266;7.920;2024-01-10T10:36:06;33.33;;;15.80;;
29662;SDS011;16578;53.266;7.920;2024-01-10T10:38:33;35.55;;;17.08;;
29662;SDS011;16578;53.266;7.920;2024-01-10T10:40:59;36.80;;;15.27;;
29662;SDS011;16578;53.266;7.920;2024-01-10T10:43:25;38.47;;;16.58;;
29662;SDS011;16578;53.266;7.920;2024-01-10T10:45:51;34.72;;;16.45;;
29662;SDS011;16578;53.266;7.920;2024-01-10T10:48:17;33.13;;;15.98;;
29662;SDS011;16578;53.266;7.920;2024-01-10T10:51:32;31.45;;;14.32;;
29662;SDS011;16578;53.266;7.920;2024-01-10T10:53:32;36.30;;;15.52;;
29662;SDS011;16578;53.266;7.920;2024-01-10T10:56:02;29.08;;;14.57;;
29662;SDS011;16578;53.266;7.920;2024-01-10T10:58:33;31.08;;;15.35;;
29662;SDS011;16578;53.266;7.920;2024-01-10T11:01:04;31.42;;;14.93;;
29662;SDS011;16578;53.266;7.920;2024-01-10T11:03:34;31.13;;;14.98;;
29662;SDS011;16578;53.266;7.920;2024-01-10T11:06:01;31.33;;;15.43;;
29662;SDS011;16578;53.266;7.920;2024-01-10T11:08:27;29.15;;;15.45;;
29662;SDS011;16578;53.266;7.920;2024-01-10T11:10:58;31.15;;;15.23;;
29662;SDS011;16578;53.266;7.920;2024-01-10T11:24:17;29.85;;;15.23;;
29662;SDS011;16578;53.266;7.920;2024-01-10T11:26:44;32.00;;;17.67;;
29662;SDS011;16578;53.266;7.920;2024-01-10T11:29:10;30.20;;;15.50;;
29662;SDS011;16578;53.266;7.920;2024-01-10T11:31:36;25.77;;;13.85;;
29662;SDS011;16578;53.266;7.920;2024-01-10T11:34:04;28.08;;;15.00;;
29662;SDS011;16578;53.266;7.920;2024-01-10T11:36:29;28.23;;;14.65;;
29662;SDS011;16578;53.266;7.920;2024-01-10T11:39:01;29.92;;;15.80;;
29662;SDS011;16578;53.266;7.920;2024-01-10T11:41:30;32.85;;;16.80;;
29662;SDS011;16578;53.266;7.920;2024-01-10T11:46:38;26.33;;;14.15;;
29662;SDS011;16578;53.266;7.920;2024-01-10T11:49:10;28.95;;;14.93;;
29662;SDS011;16578;53.266;7.920;2024-01-10T11:51:38;32.03;;;14.60;;
29662;SDS011;16578;53.266;7.920;2024-01-10T11:54:06;31.55;;;16.33;;
29662;SDS011;16578;53.266;7.920;2024-01-10T11:56:39;29.85;;;14.40;;
29662;SDS011;16578;53.266;7.920;2024-01-10T11:59:08;27.70;;;14.43;;
29662;SDS011;16578;53.266;7.920;2024-01-10T12:01:38;27.33;;;13.95;;
29662;SDS011;16578;53.266;7.920;2024-01-10T12:04:06;29.53;;;14.63;;
29662;SDS011;16578;53.266;7.920;2024-01-10T12:06:33;28.15;;;14.25;;
29662;SDS011;16578;53.266;7.920;2024-01-10T12:09:01;25.75;;;13.35;;
29662;SDS011;16578;53.266;7.920;2024-01-10T12:11:33;27.15;;;13.73;;
29662;SDS011;16578;53.266;7.920;2024-01-10T12:14:04;26.33;;;14.25;;
29662;SDS011;16578;53.266;7.920;2024-01-10T12:16:29;29.05;;;14.18;;
29662;SDS011;16578;53.266;7.920;2024-01-10T12:18:57;29.50;;;14.67;;
29662;SDS011;16578;53.266;7.920;2024-01-10T12:21:22;26.20;;;14.05;;
29662;SDS011;16578;53.266;7.920;2024-01-10T12:23:48;26.10;;;14.13;;
29662;SDS011;16578;53.266;7.920;2024-01-10T12:26:16;27.02;;;13.60;;
29662;SDS011;16578;53.266;7.920;2024-01-10T12:28:52;21.67;;;12.23;;
29662;SDS011;16578;53.266;7.920;2024-01-10T12:31:18;22.60;;;12.63;;
29662;SDS011;16578;53.266;7.920;2024-01-10T12:33:44;27.27;;;13.63;;
29662;SDS011;16578;53.266;7.920;2024-01-10T12:36:10;25.48;;;13.32;;
29662;SDS011;16578;53.266;7.920;2024-01-10T12:38:36;25.50;;;12.88;;
29662;SDS011;16578;53.266;7.920;2024-01-10T12:41:03;23.17;;;11.98;;
29662;SDS011;16578;53.266;7.920;2024-01-10T12:43:30;22.10;;;12.45;;
29662;SDS011;16578;53.266;7.920;2024-01-10T12:46:12;22.85;;;12.32;;
29662;SDS011;16578;53.266;7.920;2024-01-10T12:48:38;25.50;;;12.93;;
29662;SDS011;16578;53.266;7.920;2024-01-10T12:51:08;22.75;;;13.38;;
29662;SDS011;16578;53.266;7.920;2024-01-10T12:53:37;23.60;;;13.38;;
29662;SDS011;16578;53.266;7.920;2024-01-10T12:56:08;23.95;;;13.27;;
29662;SDS011;16578;53.266;7.920;2024-01-10T12:58:39;26.10;;;13.90;;
29662;SDS011;16578;53.266;7.920;2024-01-10T13:01:10;28.15;;;14.07;;
29662;SDS011;16578;53.266;7.920;2024-01-10T13:03:37;23.98;;;15.20;;
29662;SDS011;16578;53.266;7.920;2024-01-10T13:06:06;27.92;;;15.70;;
29662;SDS011;16578;53.266;7.920;2024-01-10T13:08:32;24.42;;;15.98;;
29662;SDS011;16578;53.266;7.920;2024-01-10T13:10:58;25.70;;;14.52;;
29662;SDS011;16578;53.266;7.920;2024-01-10T13:13:26;26.05;;;14.75;;
29662;SDS011;16578;53.266;7.920;2024-01-10T13:15:52;25.42;;;14.05;;
29662;SDS011;16578;53.266;7.920;2024-01-10T13:18:18;25.65;;;14.70;;
29662;SDS011;16578;53.266;7.920;2024-01-10T13:20:44;22.02;;;13.27;;
29662;SDS011;16578;53.266;7.920;2024-01-10T13:23:10;21.02;;;13.38;;
29662;SDS011;16578;53.266;7.920;2024-01-10T13:25:36;23.98;;;14.55;;
29662;SDS011;16578;53.266;7.920;2024-01-10T13:28:02;25.90;;;14.77;;
29662;SDS011;16578;53.266;7.920;2024-01-10T13:30:29;23.13;;;13.90;;
29662;SDS011;16578;53.266;7.920;2024-01-10T13:32:55;23.73;;;13.27;;
29662;SDS011;16578;53.266;7.920;2024-01-10T13:35:20;24.52;;;12.68;;
29662;SDS011;16578;53.266;7.920;2024-01-10T13:37:47;24.27;;;12.55;;
29662;SDS011;16578;53.266;7.920;2024-01-10T13:40:13;22.80;;;13.57;;
29662;SDS011;16578;53.266;7.920;2024-01-10T13:42:39;25.02;;;13.02;;
29662;SDS011;16578;53.266;7.920;2024-01-10T13:45:05;23.90;;;13.35;;
29662;SDS011;16578;53.266;7.920;2024-01-10T13:47:32;25.25;;;14.30;;
29662;SDS011;16578;53.266;7.920;2024-01-10T13:50:00;24.10;;;13.50;;
29662;SDS011;16578;53.266;7.920;2024-01-10T13:52:28;23.55;;;13.35;;
29662;SDS011;16578;53.266;7.920;2024-01-10T13:54:53;22.30;;;12.77;;
29662;SDS011;16578;53.266;7.920;2024-01-10T13:57:19;22.05;;;13.23;;
29662;SDS011;16578;53.266;7.920;2024-01-10T13:59:45;23.23;;;12.93;;
29662;SDS011;16578;53.266;7.920;2024-01-10T14:02:12;19.67;;;12.63;;
29662;SDS011;16578;53.266;7.920;2024-01-10T14:04:37;22.63;;;13.18;;
29662;SDS011;16578;53.266;7.920;2024-01-10T14:07:03;24.33;;;13.93;;
29662;SDS011;16578;53.266;7.920;2024-01-10T14:09:29;22.45;;;12.57;;
29662;SDS011;16578;53.266;7.920;2024-01-10T14:11:56;25.35;;;13.52;;
29662;SDS011;16578;53.266;7.920;2024-01-10T14:14:21;22.70;;;12.15;;
29662;SDS011;16578;53.266;7.920;2024-01-10T14:16:47;26.23;;;14.57;;
29662;SDS011;16578;53.266;7.920;2024-01-10T14:19:13;20.05;;;12.02;;
29662;SDS011;16578;53.266;7.920;2024-01-10T14:21:38;20.05;;;11.68;;
29662;SDS011;16578;53.266;7.920;2024-01-10T14:24:04;22.08;;;13.02;;
29662;SDS011;16578;53.266;7.920;2024-01-10T14:26:30;23.13;;;13.57;;
29662;SDS011;16578;53.266;7.920;2024-01-10T14:28:55;25.10;;;15.13;;
29662;SDS011;16578;53.266;7.920;2024-01-10T14:31:22;24.42;;;15.40;;
29662;SDS011;16578;53.266;7.920;2024-01-10T14:33:48;24.55;;;15.05;;